sensor_id;sensor_type;location;lat;lon;timestamp;pressure;altitude;pressure_sealevel;temperature;humidity
36354;BME280;22383;51.114;13.666;2023-05-09T00:02:07;68060.84;;;7.88;100.00
36354;BME280;22383;51.114;13.666;2023-05-09T00:04:37;68061.78;;;7.86;100.00
36354;BME280;22383;51.114;13.666;2023-05-09T00:07:05;68053.28;;;7.79;100.00
36354;BME280;22383;51.114;13.666;2023-05-09T00:09:33;68048.75;;;7.74;100.00
36354;BME280;22383;51.114;13.666;2023-05-09T00:12:00;68048.75;;;7.74;100.00
36354;BME280;22383;51.114;13.666;2023-05-09T00:14:29;68044.41;;;7.73;100.00
36354;BME280;22383;51.114;13.666;2023-05-09T00:16:56;68044.22;;;7.70;100.00
36354;BME280;22383;51.114;13.666;2023-05-09T00:19:25;68044.22;;;7.70;100.00
36354;BME280;22383;51.114;13.666;2023-05-09T00:21:53;68036.31;;;7.63;100.00
36354;BME280;22383;51.114;13.666;2023-05-09T00:24:24;68041.97;;;7.68;100.00
36354;BME280;22383;51.114;13.666;2023-05-09T00:26:53;68037.09;;;7.66;100.00
36354;BME280;22383;51.114;13.666;2023-05-09T00:29:27;68036.88;;;7.64;100.00
36354;BME280;22383;51.114;13.666;2023-05-09T00:31:57;68038.56;;;7.65;100.00
36354;BME280;22383;51.114;13.666;2023-05-09T00:34:26;68038.56;;;7.65;100.00
36354;BME280;22383;51.114;13.666;2023-05-09T00:36:55;68035.19;;;7.62;100.00
36354;BME280;22383;51.114;13.666;2023-05-09T00:39:26;68027.25;;;7.55;100.00
36354;BME280;22383;51.114;13.666;2023-05-09T00:41:55;68035.00;;;7.60;100.00
36354;BME280;22383;51.114;13.666;2023-05-09T00:44:22;68033.66;;;7.56;100.00
36354;BME280;22383;51.114;13.666;2023-05-09T00:46:49;68030.09;;;7.57;100.00
36354;BME280;22383;51.114;13.666;2023-05-09T00:49:17;68029.53;;;7.57;100.00
36354;BME280;22383;51.114;13.666;2023-05-09T00:51:44;68032.16;;;7.57;100.00
36354;BME280;22383;51.114;13.666;2023-05-09T00:54:12;68025.38;;;7.51;100.00
36354;BME280;22383;51.114;13.666;2023-05-09T00:56:40;68026.34;;;7.56;100.00
36354;BME280;22383;51.114;13.666;2023-05-09T00:59:07;68024.44;;;7.52;100.00
36354;BME280;22383;51.114;13.666;2023-05-09T01:01:34;68015.94;;;7.45;100.00
36354;BME280;22383;51.114;13.666;2023-05-09T01:04:04;68013.13;;;7.42;100.00
36354;BME280;22383;51.114;13.666;2023-05-09T01:09:18;67999.19;;;7.32;100.00
36354;BME280;22383;51.114;13.666;2023-05-09T01:15:05;67988.81;;;7.20;100.00
36354;BME280;22383;51.114;13.666;2023-05-09T01:17:48;67982.03;;;7.14;100.00
36354;BME280;22383;51.114;13.666;2023-05-09T01:23:35;67975.06;;;7.12;100.00
36354;BME280;22383;51.114;13.666;2023-05-09T01:26:13;67975.59;;;7.06;100.00
36354;BME280;22383;51.114;13.666;2023-05-09T01:31:43;67964.50;;;6.98;100.00
36354;BME280;22383;51.114;13.666;2023-05-09T01:34:15;67965.06;;;6.98;100.00
36354;BME280;22383;51.114;13.666;2023-05-09T01:36:45;67965.63;;;6.99;100.00
36354;BME280;22383;51.114;13.666;2023-05-09T01:39:23;67967.88;;;7.01;100.00
36354;BME280;22383;51.114;13.666;2023-05-09T01:41:52;67962.03;;;6.93;100.00
36354;BME280;22383;51.114;13.666;2023-05-09T01:44:25;67949.25;;;6.84;100.00
36354;BME280;22383;51.114;13.666;2023-05-09T01:46:59;67948.66;;;6.84;100.00
36354;BME280;22383;51.114;13.666;2023-05-09T01:49:29;67950.94;;;6.86;100.00
36354;BME280;22383;51.114;13.666;2023-05-09T01:52:04;67944.16;;;6.79;100.00
36354;BME280;22383;51.114;13.666;2023-05-09T01:54:34;67940.97;;;6.79;100.00
36354;BME280;22383;51.114;13.666;2023-05-09T01:57:09;67940.56;;;6.74;100.00
36354;BME280;22383;51.114;13.666;2023-05-09T01:59:39;67945.06;;;6.78;100.00
36354;BME280;22383;51.114;13.666;2023-05-09T02:02:09;67940.19;;;6.76;100.00
36354;BME280;22383;51.114;13.666;2023-05-09T02:04:39;67931.50;;;6.66;100.00
36354;BME280;22383;51.114;13.666;2023-05-09T02:07:08;67935.69;;;6.72;100.00
36354;BME280;22383;51.114;13.666;2023-05-09T02:09:39;67929.66;;;6.69;100.00
36354;BME280;22383;51.114;13.666;2023-05-09T02:12:12;67919.84;;;6.57;100.00
36354;BME280;22383;51.114;13.666;2023-05-09T02:14:39;67862.94;;;6.49;100.00
36354;BME280;22383;51.114;13.666;2023-05-09T02:17:08;67909.66;;;6.48;100.00
36354;BME280;22383;51.114;13.666;2023-05-09T02:19:37;67895.94;;;6.40;100.00
36354;BME280;22383;51.114;13.666;2023-05-09T02:22:14;67907.97;;;6.47;100.00
36354;BME280;22383;51.114;13.666;2023-05-09T02:24:42;67902.91;;;6.42;100.00
36354;BME280;22383;51.114;13.666;2023-05-09T02:27:14;67899.69;;;6.41;100.00
36354;BME280;22383;51.114;13.666;2023-05-09T02:29:54;67901.75;;;6.41;100.00
36354;BME280;22383;51.114;13.666;2023-05-09T02:32:28;67893.47;;;6.36;100.00
36354;BME280;22383;51.114;13.666;2023-05-09T02:34:57;67884.25;;;6.25;100.00
36354;BME280;22383;51.114;13.666;2023-05-09T02:37:37;67876.34;;;6.18;100.00
36354;BME280;22383;51.114;13.666;2023-05-09T02:40:07;67883.47;;;6.22;100.00
36354;BME280;22383;51.114;13.666;2023-05-09T02:42:39;67880.66;;;6.19;100.00
36354;BME280;22383;51.114;13.666;2023-05-09T02:45:06;67879.91;;;6.16;100.00
36354;BME280;22383;51.114;13.666;2023-05-09T02:47:37;67874.63;;;6.16;100.00
36354;BME280;22383;51.114;13.666;2023-05-09T02:50:11;67879.91;;;6.16;100.00
36354;BME280;22383;51.114;13.666;2023-05-09T02:52:44;67874.28;;;6.18;100.00
36354;BME280;22383;51.114;13.666;2023-05-09T02:55:12;67868.44;;;6.11;100.00
36354;BME280;22383;51.114;13.666;2023-05-09T02:57:41;67871.25;;;6.13;100.00
36354;BME280;22383;51.114;13.666;2023-05-09T03:00:10;67867.66;;;6.08;100.00
36354;BME280;22383;51.114;13.666;2023-05-09T03:02:39;67865.59;;;6.08;100.00
36354;BME280;22383;51.114;13.666;2023-05-09T03:05:19;67865.59;;;6.08;100.00
36354;BME280;22383;51.114;13.666;2023-05-09T03:07:46;67857.69;;;6.01;100.00
36354;BME280;22383;51.114;13.666;2023-05-09T03:10:15;67853.94;;;6.00;100.00
36354;BME280;22383;51.114;13.666;2023-05-09T03:12:43;67860.72;;;6.06;100.00
36354;BME280;22383;51.114;13.666;2023-05-09T03:15:11;67850.31;;;5.94;100.00
36354;BME280;22383;51.114;13.666;2023-05-09T03:17:44;67845.44;;;5.92;100.00
36354;BME280;22383;51.114;13.666;2023-05-09T03:20:12;67846.56;;;5.93;100.00
36354;BME280;22383;51.114;13.666;2023-05-09T03:22:41;67848.66;;;5.93;100.00
36354;BME280;22383;51.114;13.666;2023-05-09T03:25:11;67851.47;;;5.95;100.00
36354;BME280;22383;51.114;13.666;2023-05-09T03:27:39;67843.94;;;5.86;100.00
36354;BME280;22383;51.114;13.666;2023-05-09T03:30:10;67837.16;;;5.87;100.00
36354;BME280;22383;51.114;13.666;2023-05-09T03:32:52;67838.28;;;5.81;100.00
36354;BME280;22383;51.114;13.666;2023-05-09T03:35:26;67835.44;;;5.78;100.00
36354;BME280;22383;51.114;13.666;2023-05-09T03:37:54;67840.34;;;5.80;100.00
36354;BME280;22383;51.114;13.666;2023-05-09T03:40:25;67845.44;;;5.92;100.00
36354;BME280;22383;51.114;13.666;2023-05-09T03:43:04;67846.75;;;5.88;100.00
36354;BME280;22383;51.114;13.666;2023-05-09T03:45:32;67841.66;;;5.84;100.00
36354;BME280;22383;51.114;13.666;2023-05-09T03:48:05;67844.47;;;5.86;100.00
36354;BME280;22383;51.114;13.666;2023-05-09T03:50:40;67842.22;;;5.84;100.00
36354;BME280;22383;51.114;13.666;2023-05-09T03:53:11;67848.44;;;5.90;100.00
36354;BME280;22383;51.114;13.666;2023-05-09T03:55:39;67843.00;;;5.87;100.00
36354;BME280;22383;51.114;13.666;2023-05-09T03:58:12;67846.38;;;5.91;100.00
36354;BME280;22383;51.114;13.666;2023-05-09T04:00:42;67850.91;;;5.95;100.00
36354;BME280;22383;51.114;13.666;2023-05-09T04:03:15;67842.25;;;5.92;100.00
36354;BME280;22383;51.114;13.666;2023-05-09T04:05:50;67853.53;;;5.95;100.00
36354;BME280;22383;51.114;13.666;2023-05-09T04:08:31;67856.00;;;5.99;100.00
36354;BME280;22383;51.114;13.666;2023-05-09T04:10:59;67850.75;;;5.99;100.00
36354;BME280;22383;51.114;13.666;2023-05-09T04:13:29;67865.59;;;6.08;100.00
36354;BME280;22383;51.114;13.666;2023-05-09T04:16:01;67877.47;;;6.19;100.00
36354;BME280;22383;51.114;13.666;2023-05-09T04:18:35;67872.00;;;6.16;100.00
36354;BME280;22383;51.114;13.666;2023-05-09T04:21:09;67879.16;;;6.20;100.00
36354;BME280;22383;51.114;13.666;2023-05-09T04:23:37;67880.84;;;6.22;100.00
36354;BME280;22383;51.114;13.666;2023-05-09T04:26:06;67894.63;;;6.37;100.00
36354;BME280;22383;51.114;13.666;2023-05-09T04:28:38;67891.22;;;6.34;100.00
36354;BME280;22383;51.114;13.666;2023-05-09T04:31:07;67900.06;;;6.39;100.00
36354;BME280;22383;51.114;13.666;2023-05-09T04:33:35;67904.78;;;6.46;100.00
36354;BME280;22383;51.114;13.666;2023-05-09T04:36:04;67914.59;;;6.57;100.00
36354;BME280;22383;51.114;13.666;2023-05-09T04:38:32;67925.69;;;6.65;100.00
36354;BME280;22383;51.114;13.666;2023-05-09T04:41:00;67944.31;;;6.75;100.00
36354;BME280;22383;51.114;13.666;2023-05-09T04:43:29;67937.53;;;6.69;100.00
36354;BME280;22383;51.114;13.666;2023-05-09T04:46:05;67941.34;;;6.77;100.00
36354;BME280;22383;51.114;13.666;2023-05-09T04:48:34;67943.78;;;6.81;100.00
36354;BME280;22383;51.114;13.666;2023-05-09T04:51:04;67946.97;;;6.82;100.00
36354;BME280;22383;51.114;13.666;2023-05-09T04:53:34;67979.00;;;7.09;100.00
36354;BME280;22383;51.114;13.666;2023-05-09T04:56:02;68053.09;;;7.76;100.00
36354;BME280;22383;51.114;13.666;2023-05-09T04:58:33;68150.25;;;8.69;100.00
36354;BME280;22383;51.114;13.666;2023-05-09T05:01:10;68279.97;;;9.87;100.00
36354;BME280;22383;51.114;13.666;2023-05-09T05:03:38;68407.72;;;11.05;92.90
36354;BME280;22383;51.114;13.666;2023-05-09T05:06:05;68505.88;;;11.94;83.49
36354;BME280;22383;51.114;13.666;2023-05-09T05:08:36;68602.59;;;12.76;78.45
36354;BME280;22383;51.114;13.666;2023-05-09T05:11:03;68644.22;;;13.16;74.07
36354;BME280;22383;51.114;13.666;2023-05-09T05:13:33;68648.59;;;13.18;71.04
36354;BME280;22383;51.114;13.666;2023-05-09T05:16:04;68673.22;;;13.42;68.63
36354;BME280;22383;51.114;13.666;2023-05-09T05:18:32;68676.47;;;13.43;67.94
36354;BME280;22383;51.114;13.666;2023-05-09T05:21:00;68573.25;;;12.52;68.33
36354;BME280;22383;51.114;13.666;2023-05-09T05:23:28;68558.50;;;12.39;70.33
36354;BME280;22383;51.114;13.666;2023-05-09T05:25:55;68556.03;;;12.34;70.46
36354;BME280;22383;51.114;13.666;2023-05-09T05:28:23;68471.44;;;11.58;72.05
36354;BME280;22383;51.114;13.666;2023-05-09T05:30:51;68441.94;;;11.31;73.90
36354;BME280;22383;51.114;13.666;2023-05-09T05:33:24;68466.53;;;11.56;73.70
36354;BME280;22383;51.114;13.666;2023-05-09T05:35:54;68528.97;;;12.12;73.38
36354;BME280;22383;51.114;13.666;2023-05-09T05:38:22;68576.84;;;12.58;70.48
36354;BME280;22383;51.114;13.666;2023-05-09T05:40:54;68672.66;;;13.42;69.54
36354;BME280;22383;51.114;13.666;2023-05-09T05:43:23;68668.88;;;13.41;68.27
36354;BME280;22383;51.114;13.666;2023-05-09T05:45:51;68678.34;;;13.47;68.19
36354;BME280;22383;51.114;13.666;2023-05-09T05:48:24;68678.53;;;13.50;67.09
36354;BME280;22383;51.114;13.666;2023-05-09T05:50:56;68673.63;;;13.40;67.35
36354;BME280;22383;51.114;13.666;2023-05-09T05:53:27;68719.09;;;13.82;66.33
36354;BME280;22383;51.114;13.666;2023-05-09T05:55:58;68692.75;;;13.63;66.00
36354;BME280;22383;51.114;13.666;2023-05-09T05:58:25;68725.72;;;13.92;64.55
36354;BME280;22383;51.114;13.666;2023-05-09T06:00:52;68717.94;;;13.80;64.46
36354;BME280;22383;51.114;13.666;2023-05-09T06:03:23;68772.31;;;14.34;64.24
36354;BME280;22383;51.114;13.666;2023-05-09T06:05:56;68776.69;;;14.36;62.73
36354;BME280;22383;51.114;13.666;2023-05-09T06:08:23;68724.00;;;13.91;63.34
36354;BME280;22383;51.114;13.666;2023-05-09T06:10:51;68691.59;;;13.61;63.12
36354;BME280;22383;51.114;13.666;2023-05-09T06:13:18;68738.41;;;13.99;64.47
36354;BME280;22383;51.114;13.666;2023-05-09T06:15:54;68695.97;;;13.63;65.45
36354;BME280;22383;51.114;13.666;2023-05-09T06:18:25;68654.47;;;13.26;65.69
36354;BME280;22383;51.114;13.666;2023-05-09T06:20:53;68612.59;;;12.90;66.75
36354;BME280;22383;51.114;13.666;2023-05-09T06:23:23;68622.47;;;12.94;66.83
36354;BME280;22383;51.114;13.666;2023-05-09T06:25:54;68637.59;;;13.13;66.79
36354;BME280;22383;51.114;13.666;2023-05-09T06:28:22;68665.88;;;13.36;66.57
36354;BME280;22383;51.114;13.666;2023-05-09T06:30:51;68703.75;;;13.68;65.89
36354;BME280;22383;51.114;13.666;2023-05-09T06:33:22;68797.91;;;14.57;64.13
36354;BME280;22383;51.114;13.666;2023-05-09T06:35:49;68812.53;;;14.68;62.14
36354;BME280;22383;51.114;13.666;2023-05-09T06:38:16;68818.41;;;14.69;61.96
36354;BME280;22383;51.114;13.666;2023-05-09T06:40:46;68771.41;;;14.29;62.10
36354;BME280;22383;51.114;13.666;2023-05-09T06:43:16;68760.94;;;14.24;61.44
36354;BME280;22383;51.114;13.666;2023-05-09T06:45:46;68778.22;;;14.35;63.78
36354;BME280;22383;51.114;13.666;2023-05-09T06:48:16;68697.13;;;13.64;62.27
36354;BME280;22383;51.114;13.666;2023-05-09T06:50:44;68701.47;;;13.66;64.11
36354;BME280;22383;51.114;13.666;2023-05-09T06:53:14;68767.59;;;14.28;63.65
36354;BME280;22383;51.114;13.666;2023-05-09T06:55:42;68819.16;;;14.72;61.67
36354;BME280;22383;51.114;13.666;2023-05-09T06:58:09;68836.25;;;14.87;61.35
36354;BME280;22383;51.114;13.666;2023-05-09T07:00:37;68834.13;;;14.88;60.16
36354;BME280;22383;51.114;13.666;2023-05-09T07:03:07;68824.47;;;14.79;60.32
36354;BME280;22383;51.114;13.666;2023-05-09T07:05:36;68749.56;;;14.14;60.12
36354;BME280;22383;51.114;13.666;2023-05-09T07:08:03;68720.22;;;13.83;61.83
36354;BME280;22383;51.114;13.666;2023-05-09T07:10:34;68704.88;;;13.69;62.60
36354;BME280;22383;51.114;13.666;2023-05-09T07:13:01;68686.50;;;13.57;63.10
36354;BME280;22383;51.114;13.666;2023-05-09T07:15:33;68757.16;;;14.16;64.34
36354;BME280;22383;51.114;13.666;2023-05-09T07:18:09;68741.63;;;14.07;61.46
36354;BME280;22383;51.114;13.666;2023-05-09T07:20:37;68770.06;;;14.32;60.45
36354;BME280;22383;51.114;13.666;2023-05-09T07:23:04;68809.50;;;14.63;60.32
36354;BME280;22383;51.114;13.666;2023-05-09T07:25:32;68850.66;;;15.03;61.99
36354;BME280;22383;51.114;13.666;2023-05-09T07:28:02;68838.50;;;14.89;60.66
36354;BME280;22383;51.114;13.666;2023-05-09T07:30:32;68761.34;;;14.22;61.01
36354;BME280;22383;51.114;13.666;2023-05-09T07:33:03;68737.09;;;13.95;62.82
36354;BME280;22383;51.114;13.666;2023-05-09T07:35:30;68713.03;;;13.78;61.90
36354;BME280;22383;51.114;13.666;2023-05-09T07:37:58;68675.69;;;13.47;63.14
36354;BME280;22383;51.114;13.666;2023-05-09T07:40:31;68717.38;;;13.80;62.16
36354;BME280;22383;51.114;13.666;2023-05-09T07:43:03;68761.91;;;14.23;62.43
36354;BME280;22383;51.114;13.666;2023-05-09T07:45:31;68782.19;;;14.38;63.43
36354;BME280;22383;51.114;13.666;2023-05-09T07:48:01;68767.59;;;14.28;61.50
36354;BME280;22383;51.114;13.666;2023-05-09T07:50:28;68736.72;;;13.97;61.57
36354;BME280;22383;51.114;13.666;2023-05-09T07:52:59;68663.78;;;13.36;60.81
36354;BME280;22383;51.114;13.666;2023-05-09T07:55:37;68655.22;;;13.21;62.31
36354;BME280;22383;51.114;13.666;2023-05-09T07:58:13;68680.44;;;13.47;61.89
36354;BME280;22383;51.114;13.666;2023-05-09T08:00:40;68724.19;;;13.86;65.11
36354;BME280;22383;51.114;13.666;2023-05-09T08:03:10;68730.84;;;13.90;61.45
36354;BME280;22383;51.114;13.666;2023-05-09T08:05:38;68706.78;;;13.73;61.02
36354;BME280;22383;51.114;13.666;2023-05-09T08:08:05;68746.56;;;14.09;62.00
36354;BME280;22383;51.114;13.666;2023-05-09T08:10:37;68757.75;;;14.16;60.92
36354;BME280;22383;51.114;13.666;2023-05-09T08:13:04;68793.56;;;14.49;61.98
36354;BME280;22383;51.114;13.666;2023-05-09T08:15:31;68774.78;;;14.32;62.14
36354;BME280;22383;51.114;13.666;2023-05-09T08:18:00;68782.19;;;14.38;60.47
36354;BME280;22383;51.114;13.666;2023-05-09T08:20:28;68794.88;;;14.52;62.25
36354;BME280;22383;51.114;13.666;2023-05-09T08:22:57;68808.75;;;14.67;61.78
36354;BME280;22383;51.114;13.666;2023-05-09T08:25:24;68819.53;;;14.77;61.67
36354;BME280;22383;51.114;13.666;2023-05-09T08:27:59;68782.75;;;14.39;61.04
36354;BME280;22383;51.114;13.666;2023-05-09T08:30:26;68778.97;;;14.38;60.29
36354;BME280;22383;51.114;13.666;2023-05-09T08:32:55;68821.81;;;14.79;60.49
36354;BME280;22383;51.114;13.666;2023-05-09T08:35:27;68813.66;;;14.69;60.41
36354;BME280;22383;51.114;13.666;2023-05-09T08:37:55;68811.41;;;14.67;60.34
36354;BME280;22383;51.114;13.666;2023-05-09T08:40:22;68792.03;;;14.50;60.25
36354;BME280;22383;51.114;13.666;2023-05-09T08:42:49;68845.16;;;14.93;59.38
36354;BME280;22383;51.114;13.666;2023-05-09T08:45:25;68868.44;;;15.21;58.32
36354;BME280;22383;51.114;13.666;2023-05-09T08:47:55;68934.47;;;15.81;59.85
36354;BME280;22383;51.114;13.666;2023-05-09T08:50:23;68873.56;;;15.26;55.78
36354;BME280;22383;51.114;13.666;2023-05-09T08:52:55;68890.06;;;15.41;55.72
36354;BME280;22383;51.114;13.666;2023-05-09T08:55:26;68898.41;;;15.46;54.37
36354;BME280;22383;51.114;13.666;2023-05-09T08:57:54;68926.13;;;15.76;55.00
36354;BME280;22383;51.114;13.666;2023-05-09T09:00:27;68966.75;;;16.07;54.38
36354;BME280;22383;51.114;13.666;2023-05-09T09:03:01;69034.50;;;16.69;54.83
36354;BME280;22383;51.114;13.666;2023-05-09T09:05:36;68956.28;;;16.03;53.67
36354;BME280;22383;51.114;13.666;2023-05-09T09:08:09;68965.06;;;16.06;54.73
36354;BME280;22383;51.114;13.666;2023-05-09T09:10:40;68973.19;;;16.16;55.71
36354;BME280;22383;51.114;13.666;2023-05-09T09:13:16;68976.59;;;16.19;52.27
36354;BME280;22383;51.114;13.666;2023-05-09T09:15:48;69023.31;;;16.61;53.11
36354;BME280;22383;51.114;13.666;2023-05-09T09:18:21;69032.22;;;16.67;54.20
36354;BME280;22383;51.114;13.666;2023-05-09T09:21:14;69025.97;;;16.61;54.02
36354;BME280;22383;51.114;13.666;2023-05-09T09:23:46;69035.09;;;16.69;51.79
36354;BME280;22383;51.114;13.666;2023-05-09T09:26:16;69034.69;;;16.71;50.85
36354;BME280;22383;51.114;13.666;2023-05-09T09:28:49;69052.38;;;16.87;53.33
36354;BME280;22383;51.114;13.666;2023-05-09T09:31:26;69052.19;;;16.85;52.01
36354;BME280;22383;51.114;13.666;2023-05-09T09:34:01;69026.38;;;16.59;51.06
36354;BME280;22383;51.114;13.666;2023-05-09T09:36:30;69068.72;;;16.99;51.74
36354;BME280;22383;51.114;13.666;2023-05-09T09:39:03;69081.06;;;17.08;51.58
36354;BME280;22383;51.114;13.666;2023-05-09T09:41:32;69070.59;;;17.04;51.76
36354;BME280;22383;51.114;13.666;2023-05-09T09:44:07;69035.47;;;16.67;52.66
36354;BME280;22383;51.114;13.666;2023-05-09T09:46:54;69058.47;;;16.90;50.16
36354;BME280;22383;51.114;13.666;2023-05-09T09:49:24;69076.88;;;17.09;50.22
36354;BME280;22383;51.114;13.666;2023-05-09T09:51:56;69100.44;;;17.26;50.80
36354;BME280;22383;51.114;13.666;2023-05-09T09:54:32;69121.53;;;17.45;50.26
36354;BME280;22383;51.114;13.666;2023-05-09T09:57:00;69188.97;;;18.08;51.56
36354;BME280;22383;51.114;13.666;2023-05-09T09:59:27;69116.59;;;17.43;52.86
36354;BME280;22383;51.114;13.666;2023-05-09T10:02:06;69115.44;;;17.42;51.42
36354;BME280;22383;51.114;13.666;2023-05-09T10:04:37;69143.19;;;17.64;51.39
36354;BME280;22383;51.114;13.666;2023-05-09T10:07:09;69103.63;;;17.33;49.43
36354;BME280;22383;51.114;13.666;2023-05-09T10:09:40;69121.69;;;17.47;51.55
36354;BME280;22383;51.114;13.666;2023-05-09T10:12:10;69125.28;;;17.53;51.00
36354;BME280;22383;51.114;13.666;2023-05-09T10:14:40;69112.00;;;17.38;49.83
36354;BME280;22383;51.114;13.666;2023-05-09T10:17:12;69149.22;;;17.74;52.09
36354;BME280;22383;51.114;13.666;2023-05-09T10:19:43;69162.72;;;17.84;48.75
36354;BME280;22383;51.114;13.666;2023-05-09T10:22:13;69113.72;;;17.40;49.42
36354;BME280;22383;51.114;13.666;2023-05-09T10:24:50;69130.81;;;17.55;50.78
36354;BME280;22383;51.114;13.666;2023-05-09T10:27:26;69208.38;;;18.25;53.71
36354;BME280;22383;51.114;13.666;2023-05-09T10:30:03;69259.88;;;18.74;48.53
36354;BME280;22383;51.114;13.666;2023-05-09T10:32:52;69210.25;;;18.29;48.39
36354;BME280;22383;51.114;13.666;2023-05-09T10:35:22;69195.81;;;18.14;47.20
36354;BME280;22383;51.114;13.666;2023-05-09T10:37:51;69239.16;;;18.53;51.22
36354;BME280;22383;51.114;13.666;2023-05-09T10:40:21;69245.25;;;18.56;47.26
36354;BME280;22383;51.114;13.666;2023-05-09T10:42:48;69240.84;;;18.55;47.17
36354;BME280;22383;51.114;13.666;2023-05-09T10:45:19;69348.13;;;19.51;48.44
36354;BME280;22383;51.114;13.666;2023-05-09T10:47:49;69389.44;;;19.91;46.52
36354;BME280;22383;51.114;13.666;2023-05-09T10:50:18;69330.06;;;19.37;47.32
36354;BME280;22383;51.114;13.666;2023-05-09T10:58:25;69331.59;;;19.36;47.05
36354;BME280;22383;51.114;13.666;2023-05-09T11:00:56;69313.50;;;19.22;45.71
36354;BME280;22383;51.114;13.666;2023-05-09T11:09:30;69334.44;;;19.39;46.24
36354;BME280;22383;51.114;13.666;2023-05-09T11:17:07;69249.44;;;18.62;44.55
36354;BME280;22383;51.114;13.666;2023-05-09T11:22:18;69293.00;;;18.97;44.29
36354;BME280;22383;51.114;13.666;2023-05-09T11:24:47;69241.03;;;18.57;43.58
36354;BME280;22383;51.114;13.666;2023-05-09T11:27:20;69240.84;;;18.55;45.76
36354;BME280;22383;51.114;13.666;2023-05-09T11:29:52;69215.94;;;18.35;45.81
36354;BME280;22383;51.114;13.666;2023-05-09T11:32:33;69177.19;;;18.00;44.59
36354;BME280;22383;51.114;13.666;2023-05-09T11:35:09;69162.16;;;17.84;43.58
36354;BME280;22383;51.114;13.666;2023-05-09T11:37:44;69171.47;;;17.94;45.53
36354;BME280;22383;51.114;13.666;2023-05-09T11:40:19;69201.13;;;18.21;46.18
36354;BME280;22383;51.114;13.666;2023-05-09T11:42:51;69249.03;;;18.64;46.58
36354;BME280;22383;51.114;13.666;2023-05-09T11:45:28;69228.88;;;18.44;43.65
36354;BME280;22383;51.114;13.666;2023-05-09T11:47:58;69270.72;;;18.84;45.12
36354;BME280;22383;51.114;13.666;2023-05-09T11:50:27;69273.22;;;18.81;45.54
36354;BME280;22383;51.114;13.666;2023-05-09T11:52:54;69273.56;;;18.86;43.43
36354;BME280;22383;51.114;13.666;2023-05-09T11:55:25;69253.00;;;18.68;42.11
36354;BME280;22383;51.114;13.666;2023-05-09T11:58:05;69269.78;;;18.78;44.07
36354;BME280;22383;51.114;13.666;2023-05-09T12:00:43;69247.72;;;18.61;43.63
36354;BME280;22383;51.114;13.666;2023-05-09T12:03:10;69261.81;;;18.71;40.47
36354;BME280;22383;51.114;13.666;2023-05-09T12:05:44;69275.69;;;18.86;41.28
36354;BME280;22383;51.114;13.666;2023-05-09T12:08:15;69279.50;;;18.87;41.98
36354;BME280;22383;51.114;13.666;2023-05-09T12:10:49;69270.91;;;18.79;42.20
36354;BME280;22383;51.114;13.666;2023-05-09T12:13:17;69251.31;;;18.66;42.70
36354;BME280;22383;51.114;13.666;2023-05-09T12:15:46;69279.09;;;18.89;43.67
36354;BME280;22383;51.114;13.666;2023-05-09T12:18:13;69294.31;;;19.00;42.06
36354;BME280;22383;51.114;13.666;2023-05-09T12:20:48;69278.13;;;18.91;45.24
36354;BME280;22383;51.114;13.666;2023-05-09T12:23:18;69277.38;;;18.87;40.93
36354;BME280;22383;51.114;13.666;2023-05-09T12:25:57;69274.72;;;18.87;41.42
36354;BME280;22383;51.114;13.666;2023-05-09T12:28:27;69287.66;;;18.97;42.80
36354;BME280;22383;51.114;13.666;2023-05-09T12:31:00;69295.25;;;19.06;43.25
36354;BME280;22383;51.114;13.666;2023-05-09T12:33:33;69301.75;;;19.07;41.66
36354;BME280;22383;51.114;13.666;2023-05-09T12:36:09;69310.47;;;19.17;40.74
36354;BME280;22383;51.114;13.666;2023-05-09T12:38:39;69314.31;;;19.18;41.06
36354;BME280;22383;51.114;13.666;2023-05-09T12:41:08;69301.53;;;19.12;42.80
36354;BME280;22383;51.114;13.666;2023-05-09T12:43:55;69292.22;;;19.01;43.20
36354;BME280;22383;51.114;13.666;2023-05-09T12:46:30;69332.91;;;19.40;42.29
36354;BME280;22383;51.114;13.666;2023-05-09T12:48:57;69340.88;;;19.47;40.44
36354;BME280;22383;51.114;13.666;2023-05-09T12:51:25;69338.84;;;19.40;40.99
36354;BME280;22383;51.114;13.666;2023-05-09T12:53:53;69316.19;;;19.22;40.18
36354;BME280;22383;51.114;13.666;2023-05-09T12:56:23;69318.66;;;19.27;40.78
36354;BME280;22383;51.114;13.666;2023-05-09T12:58:53;69312.03;;;19.16;43.27
36354;BME280;22383;51.114;13.666;2023-05-09T13:01:28;69341.13;;;19.42;42.61
36354;BME280;22383;51.114;13.666;2023-05-09T13:04:01;69355.56;;;19.58;40.80
36354;BME280;22383;51.114;13.666;2023-05-09T13:06:33;69359.72;;;19.64;41.43
36354;BME280;22383;51.114;13.666;2023-05-09T13:09:03;69296.78;;;19.05;40.35
36354;BME280;22383;51.114;13.666;2023-05-09T13:11:32;69335.19;;;19.42;40.95
36354;BME280;22383;51.114;13.666;2023-05-09T13:14:05;69346.03;;;19.52;40.80
36354;BME280;22383;51.114;13.666;2023-05-09T13:16:33;69388.69;;;19.88;40.64
36354;BME280;22383;51.114;13.666;2023-05-09T13:19:01;69382.97;;;19.82;38.39
36354;BME280;22383;51.114;13.666;2023-05-09T13:21:28;69373.84;;;19.74;39.68
36354;BME280;22383;51.114;13.666;2023-05-09T13:23:55;69396.66;;;19.95;41.06
36354;BME280;22383;51.114;13.666;2023-05-09T13:26:23;69368.69;;;19.70;39.68
36354;BME280;22383;51.114;13.666;2023-05-09T13:28:51;69382.41;;;19.82;40.88
36354;BME280;22383;51.114;13.666;2023-05-09T13:31:18;69391.53;;;19.90;39.56
36354;BME280;22383;51.114;13.666;2023-05-09T13:33:49;69356.72;;;19.59;38.99
36354;BME280;22383;51.114;13.666;2023-05-09T13:36:18;69347.16;;;19.53;39.54
36354;BME280;22383;51.114;13.666;2023-05-09T13:38:45;69382.59;;;19.85;39.60
36354;BME280;22383;51.114;13.666;2023-05-09T13:41:13;69345.44;;;19.51;40.03